Time;durP1;ratioP1;P1;durP2;ratioP2;P2;SDS_P1;SDS_P2;PMS_P1;PMS_P2;Temp;Humidity;BMP_temperature;BMP_pressure;BME280_temperature;BME280_humidity;BME280_pressure;Samples;Min_cycle;Max_cycle;Signal;HPM_P1;HPM_P2
2022/09/25 00:00:51;;;;;;;17.25;16.02;;;;;;;9.75;100.00;99577.97;10497905;28;20072;-70
2022/09/25 00:06:04;;;;;;;17.80;16.42;;;;;;;9.76;100.00;99574.44;10498767;28;20033;-71
2022/09/25 00:11:24;;;;;;;17.70;16.48;;;;;;;9.81;100.00;99568.09;10497840;28;20136;-71
2022/09/25 00:16:29;;;;;;;16.95;15.75;;;;;;;9.81;100.00;99569.84;10497369;28;20402;-70
2022/09/25 00:21:32;;;;;;;17.42;16.23;;;;;;;9.95;100.00;99578.09;10497939;28;20101;-70
2022/09/25 00:26:36;;;;;;;18.90;17.48;;;;;;;10.00;100.00;99568.25;10496851;28;20070;-70
2022/09/25 00:31:38;;;;;;;17.77;16.58;;;;;;;9.78;100.00;99565.59;10496709;28;20063;-71
2022/09/25 00:36:40;;;;;;;17.30;16.10;;;;;;;9.80;100.00;99562.91;10503289;28;20068;-70
2022/09/25 00:41:41;;;;;;;17.30;16.17;;;;;;;9.73;100.00;99570.13;10504493;28;20048;-70
2022/09/25 00:46:43;;;;;;;18.92;17.60;;;;;;;9.64;100.00;99572.22;10486562;28;20060;-70
2022/09/25 00:52:00;;;;;;;19.23;17.70;;;;;;;9.72;100.00;99565.78;10503982;28;20055;-70
2022/09/25 00:57:07;;;;;;;18.20;16.92;;;;;;;9.83;100.00;99568.06;10504937;28;20510;-70
2022/09/25 01:02:15;;;;;;;19.20;17.60;;;;;;;10.26;100.00;99562.06;10505096;28;20056;-70
2022/09/25 01:07:17;;;;;;;19.65;18.00;;;;;;;9.97;100.00;99554.41;10504331;28;20064;-70
2022/09/25 01:12:19;;;;;;;17.83;16.73;;;;;;;9.77;100.00;99547.25;10503352;28;20051;-70
2022/09/25 01:17:28;;;;;;;20.17;18.50;;;;;;;9.77;100.00;99552.50;10485543;28;20178;-70
2022/09/25 01:23:05;;;;;;;19.25;17.95;;;;;;;9.85;100.00;99550.47;10503535;28;20040;-70
2022/09/25 01:28:37;;;;;;;20.23;18.92;;;;;;;9.97;100.00;99549.16;10503012;28;20458;-70
2022/09/25 01:33:45;;;;;;;17.70;16.60;;;;;;;10.04;100.00;99551.50;10502565;28;20040;-70
2022/09/25 01:38:57;;;;;;;19.30;18.08;;;;;;;10.35;100.00;99551.22;10535870;22;20417;-77
2022/09/25 01:44:05;;;;;;;19.25;17.73;;;;;;;10.24;100.00;99555.16;10531759;28;20044;-77
2022/09/25 01:49:21;;;;;;;22.15;20.50;;;;;;;10.25;100.00;99556.88;10548273;28;20406;-77
2022/09/25 01:54:29;;;;;;;18.73;17.52;;;;;;;10.20;100.00;99559.66;10528612;28;20448;-77
2022/09/25 01:59:39;;;;;;;19.00;17.80;;;;;;;10.18;100.00;99560.63;10550780;28;20124;-77
2022/09/25 02:04:46;;;;;;;18.20;17.00;;;;;;;10.15;100.00;99555.50;10529357;28;20460;-76
2022/09/25 02:09:56;;;;;;;20.80;19.15;;;;;;;10.70;100.00;99558.63;10548115;28;20044;-76
2022/09/25 02:15:10;;;;;;;20.70;19.30;;;;;;;10.48;100.00;99551.59;10529048;28;20048;-76
2022/09/25 02:20:30;;;;;;;20.58;19.15;;;;;;;10.49;100.00;99553.34;10528651;28;20044;-76
2022/09/25 02:25:39;;;;;;;19.90;18.63;;;;;;;10.34;100.00;99549.50;10527429;28;20040;-76
2022/09/25 02:30:44;;;;;;;18.25;16.75;;;;;;;10.30;100.00;99553.16;10526783;28;20040;-76
2022/09/25 02:35:46;;;;;;;18.95;17.60;;;;;;;10.34;100.00;99553.91;10525922;28;20118;-76
2022/09/25 02:41:14;;;;;;;17.35;16.30;;;;;;;10.36;100.00;99541.59;10546524;28;20122;-76
2022/09/25 02:46:34;;;;;;;17.02;15.82;;;;;;;10.38;100.00;99544.16;10508688;28;20417;-76
2022/09/25 02:51:42;;;;;;;18.52;17.23;;;;;;;10.53;100.00;99549.63;10525742;28;20134;-76
2022/09/25 02:56:50;;;;;;;21.45;19.52;;;;;;;10.39;100.00;99546.69;10543944;28;20040;-76
2022/09/25 03:01:53;;;;;;;19.23;18.00;;;;;;;10.44;100.00;99546.53;10530927;28;20039;-76
2022/09/25 03:06:56;;;;;;;18.05;16.63;;;;;;;10.44;100.00;99549.16;10526298;28;20047;-76
2022/09/25 03:11:58;;;;;;;18.45;17.23;;;;;;;10.46;100.00;99548.19;10508275;28;20071;-76
2022/09/25 03:17:03;;;;;;;17.55;16.45;;;;;;;10.44;100.00;99543.91;10509902;28;20048;-78
2022/09/25 03:22:05;;;;;;;17.92;16.73;;;;;;;10.65;100.00;99542.19;10533326;28;20040;-77
2022/09/25 03:27:07;;;;;;;18.15;16.90;;;;;;;10.72;100.00;99539.28;10530897;28;20459;-77
2022/09/25 03:32:09;;;;;;;18.13;16.75;;;;;;;10.71;100.00;99534.06;10548941;28;20036;-77
2022/09/25 03:37:10;;;;;;;18.70;17.50;;;;;;;10.98;100.00;99535.59;10547251;28;20044;-77
2022/09/25 03:42:13;;;;;;;17.17;15.88;;;;;;;10.83;100.00;99544.09;10547143;28;20071;-77
2022/09/25 03:47:14;;;;;;;17.48;16.27;;;;;;;10.53;100.00;99527.75;10530869;28;20096;-77
2022/09/25 03:52:17;;;;;;;16.15;15.15;;;;;;;10.49;100.00;99534.06;10527406;28;20423;-77
2022/09/25 03:57:19;;;;;;;16.38;15.10;;;;;;;10.44;100.00;99534.25;10525865;28;20131;-77
2022/09/25 04:02:20;;;;;;;18.48;16.83;;;;;;;10.83;100.00;99533.56;10527482;28;20047;-77
2022/09/25 04:07:23;;;;;;;18.48;16.45;;;;;;;10.86;100.00;99530.81;10527148;28;20115;-77
2022/09/25 04:12:25;;;;;;;16.77;15.48;;;;;;;10.57;100.00;99531.97;10551344;28;20081;-77
2022/09/25 04:17:28;;;;;;;16.60;15.50;;;;;;;10.63;100.00;99531.75;10551502;28;20177;-77
2022/09/25 04:22:29;;;;;;;17.02;16.02;;;;;;;10.84;100.00;99545.78;10551005;28;20040;-77
2022/09/25 04:27:31;;;;;;;17.90;16.58;;;;;;;10.52;100.00;99545.31;10555309;28;20090;-77
2022/09/25 04:37:53;;;;;;;16.05;14.95;;;;;;;10.46;100.00;99526.31;10535668;28;20094;-77
2022/09/25 04:42:59;;;;;;;17.35;16.25;;;;;;;10.63;100.00;99538.78;10553095;28;20479;-77
2022/09/25 04:48:02;;;;;;;15.65;14.57;;;;;;;10.94;100.00;99543.66;10553187;28;20095;-77
2022/09/25 04:53:03;;;;;;;16.42;15.23;;;;;;;10.83;100.00;99550.19;10554655;28;20064;-77
2022/09/25 04:58:08;;;;;;;14.70;13.80;;;;;;;10.65;100.00;99545.69;10551651;28;20043;-78
2022/09/25 05:03:10;;;;;;;16.70;15.50;;;;;;;10.76;100.00;99553.16;10552973;28;20069;-77
2022/09/25 05:08:12;;;;;;;15.32;14.23;;;;;;;10.73;100.00;99554.13;10549604;28;20044;-71
2022/09/25 05:13:13;;;;;;;16.15;15.05;;;;;;;10.56;100.00;99546.91;10548384;28;20098;-71
2022/09/25 05:18:21;;;;;;;13.02;12.15;;;;;;;10.58;100.00;99549.47;10546185;28;20048;-71
2022/09/25 05:23:25;;;;;;;13.25;12.35;;;;;;;10.58;100.00;99550.34;10545710;28;20086;-71
2022/09/25 05:28:28;;;;;;;13.32;12.43;;;;;;;10.63;100.00;99547.53;10546211;28;20123;-71
2022/09/25 05:33:34;;;;;;;15.63;14.48;;;;;;;10.64;100.00;99553.63;10547728;28;20447;-70
2022/09/25 05:38:37;;;;;;;16.23;15.23;;;;;;;10.65;100.00;99558.81;10527390;28;20390;-71
2022/09/25 05:43:42;;;;;;;14.85;13.95;;;;;;;10.66;100.00;99557.91;10545315;28;20138;-71
2022/09/25 05:48:43;;;;;;;15.20;14.10;;;;;;;10.94;100.00;99564.69;10545107;28;20055;-71
2022/09/25 05:53:46;;;;;;;14.20;13.30;;;;;;;11.10;100.00;99565.75;10527335;28;20052;-70
2022/09/25 05:58:48;;;;;;;14.82;13.75;;;;;;;10.94;100.00;99572.59;10527309;28;20058;-70
2022/09/25 06:03:49;;;;;;;13.93;13.00;;;;;;;11.13;100.00;99554.28;10527256;28;20044;-70
2022/09/25 06:08:53;;;;;;;13.68;12.68;;;;;;;11.25;100.00;99553.78;10545500;28;20494;-69
2022/09/25 06:13:56;;;;;;;12.95;12.10;;;;;;;11.30;100.00;99557.91;10545805;28;20051;-70
2022/09/25 06:18:57;;;;;;;13.50;12.50;;;;;;;11.51;100.00;99558.78;10527351;28;20458;-70
2022/09/25 06:23:59;;;;;;;13.35;12.50;;;;;;;11.74;100.00;99549.88;10543993;28;20044;-70
2022/09/25 06:29:02;;;;;;;13.52;12.63;;;;;;;11.77;100.00;99547.06;10544425;28;20071;-70
2022/09/25 06:34:04;;;;;;;13.52;12.50;;;;;;;11.75;100.00;99546.31;10541825;28;20485;-70
2022/09/25 06:39:07;;;;;;;11.55;10.75;;;;;;;11.96;99.00;99549.81;10544491;28;20040;-70
2022/09/25 06:44:09;;;;;;;14.20;12.93;;;;;;;11.77;100.00;99559.38;10542462;28;20090;-69
2022/09/25 06:49:12;;;;;;;11.32;10.52;;;;;;;11.73;100.00;99556.06;10524639;28;20524;-70
2022/09/25 06:54:13;;;;;;;12.07;11.27;;;;;;;11.98;98.27;99566.38;10543420;28;20036;-70
2022/09/25 06:59:15;;;;;;;11.27;10.35;;;;;;;12.05;97.28;99569.59;10544066;28;20051;-70
2022/09/25 07:04:17;;;;;;;11.13;10.23;;;;;;;12.09;97.04;99571.19;10544181;28;20130;-70
2022/09/25 07:09:19;;;;;;;13.77;12.55;;;;;;;11.99;96.90;99572.50;10542974;28;20405;-70
2022/09/25 07:14:20;;;;;;;11.82;11.02;;;;;;;12.20;93.70;99578.59;10523561;28;20501;-71
2022/09/25 07:19:22;;;;;;;11.02;10.23;;;;;;;11.95;94.52;99570.91;10541690;28;20489;-70
2022/09/25 07:24:28;;;;;;;10.45;9.65;;;;;;;11.94;94.68;99570.06;10542887;28;20071;-72
2022/09/25 07:29:30;;;;;;;10.82;9.90;;;;;;;12.06;90.61;99566.88;10541366;28;20048;-69
2022/09/25 07:34:34;;;;;;;12.10;9.50;;;;;;;12.10;90.00;99568.47;10541260;28;20102;-70
2022/09/25 07:39:36;;;;;;;9.27;8.57;;;;;;;12.37;87.76;99558.44;10553019;22;20044;-73
2022/09/25 07:44:38;;;;;;;10.20;9.52;;;;;;;12.62;86.21;99558.13;10539868;28;20040;-71
2022/09/25 07:49:46;;;;;;;10.40;9.60;;;;;;;12.85;85.46;99557.03;10522371;28;20467;-72
2022/09/25 07:54:47;;;;;;;9.52;8.82;;;;;;;13.06;84.58;99551.63;10521506;28;20044;-71
2022/09/25 07:59:49;;;;;;;12.32;11.30;;;;;;;13.21;83.43;99557.91;10539997;28;20040;-73
2022/09/25 08:04:52;;;;;;;9.32;8.63;;;;;;;13.02;87.66;99553.56;10539474;28;20547;-71
2022/09/25 08:09:54;;;;;;;10.98;10.10;;;;;;;13.44;84.58;99555.00;10505075;28;20047;-70
2022/09/25 08:14:56;;;;;;;11.73;10.93;;;;;;;13.60;82.88;99548.00;10539961;28;20047;-71
2022/09/25 08:19:57;;;;;;;11.93;11.13;;;;;;;13.60;84.55;99542.72;10521471;28;20048;-70
2022/09/25 08:25:02;;;;;;;10.93;10.00;;;;;;;13.77;83.32;99544.47;10539290;28;20036;-71
2022/09/25 08:30:05;;;;;;;11.85;11.05;;;;;;;13.97;80.84;99540.78;10504560;28;20393;-70
2022/09/25 08:35:07;;;;;;;11.20;10.35;;;;;;;14.16;78.14;99534.50;10538755;28;20494;-70
2022/09/25 08:40:19;;;;;;;10.65;9.77;;;;;;;14.18;78.64;99528.19;10538817;28;20044;-70
2022/09/25 08:50:52;;;;;;;10.48;9.80;;;;;;;14.23;78.55;99512.94;10539521;28;20499;-70
2022/09/25 09:01:24;;;;;;;8.65;7.95;;;;;;;14.91;74.25;99517.94;10546208;28;20050;-68
2022/09/25 09:06:27;;;;;;;8.80;8.10;;;;;;;14.91;75.44;99517.94;10545988;28;20497;-70
2022/09/25 09:11:41;;;;;;;9.40;8.77;;;;;;;15.27;75.61;99524.66;10527679;28;20048;-72
2022/09/25 09:17:01;;;;;;;9.35;8.65;;;;;;;15.88;70.99;99527.16;10527867;28;20444;-71
2022/09/25 09:22:09;;;;;;;9.63;8.82;;;;;;;16.43;67.76;99514.88;10546388;28;20044;-70
2022/09/25 09:27:28;;;;;;;9.32;8.73;;;;;;;16.86;66.85;99509.47;10527599;28;20040;-70
2022/09/25 09:33:06;;;;;;;8.00;7.50;;;;;;;17.24;65.82;99506.06;10526548;28;20127;-70
2022/09/25 09:38:32;;;;;;;8.93;8.23;;;;;;;17.87;61.19;99498.13;10544533;28;20048;-70
2022/09/25 09:43:54;;;;;;;9.15;8.45;;;;;;;18.17;60.46;99493.41;10526852;28;20052;-70
2022/09/25 09:49:04;;;;;;;9.05;8.35;;;;;;;17.98;59.34;99494.72;10504754;28;20382;-71
2022/09/25 09:54:26;;;;;;;8.18;7.65;;;;;;;18.71;57.29;99487.72;10536852;28;20097;-70
2022/09/25 09:59:39;;;;;;;7.80;7.30;;;;;;;18.98;56.02;99484.81;10502460;28;20037;-69
2022/09/25 10:04:43;;;;;;;8.10;7.40;;;;;;;19.75;52.47;99491.31;10527772;28;20044;-69
2022/09/25 10:09:48;;;;;;;6.85;6.25;;;;;;;20.04;50.73;99490.81;10544521;28;20127;-71
2022/09/25 10:14:50;;;;;;;6.72;6.00;;;;;;;20.87;49.01;99471.63;10545163;28;20036;-69
2022/09/25 10:19:55;;;;;;;5.60;5.20;;;;;;;20.99;46.99;99472.44;10525178;28;20103;-70
2022/09/25 10:25:02;;;;;;;4.85;4.40;;;;;;;21.71;44.02;99471.66;10543861;28;20036;-69
2022/09/25 10:30:10;;;;;;;4.38;4.07;;;;;;;21.53;44.40;99461.56;10543204;28;20044;-70
2022/09/25 10:35:20;;;;;;;4.88;4.50;;;;;;;21.14;43.33;99455.94;10525242;28;20040;-69
2022/09/25 10:40:37;;;;;;;4.07;3.58;;;;;;;21.86;42.06;99451.56;10543006;28;20463;-70
2022/09/25 10:45:40;;;;;;;4.95;2.90;;;;;;;21.90;42.46;99448.50;10544155;28;20059;-71
2022/09/25 10:50:42;;;;;;;3.30;2.42;;;;;;;22.27;40.53;99444.41;10524785;28;20048;-71
2022/09/25 10:55:50;;;;;;;3.00;2.05;;;;;;;22.47;40.58;99430.06;10524824;28;20081;-71
2022/09/25 11:00:55;;;;;;;2.03;1.90;;;;;;;22.31;39.20;99441.34;10536688;28;20093;-72
2022/09/25 11:06:08;;;;;;;2.65;2.45;;;;;;;22.31;39.00;99441.34;10523429;28;20509;-69
2022/09/25 11:11:12;;;;;;;3.17;1.92;;;;;;;22.05;36.62;99434.75;10520336;28;20051;-70
2022/09/25 11:16:14;;;;;;;2.30;2.10;;;;;;;22.33;37.21;99428.66;10541238;28;20097;-71
2022/09/25 11:21:27;;;;;;;2.33;2.13;;;;;;;22.52;35.93;99429.66;10540837;28;20040;-70
2022/09/25 11:26:37;;;;;;;2.28;1.90;;;;;;;22.15;38.67;99430.31;10541237;28;20437;-70
2022/09/25 11:31:48;;;;;;;1.38;1.23;;;;;;;22.42;34.91;99416.25;10540952;28;20422;-70
2022/09/25 11:37:00;;;;;;;1.40;1.30;;;;;;;22.71;33.13;99416.28;10523326;28;20445;-70
2022/09/25 11:42:24;;;;;;;2.42;1.52;;;;;;;22.47;34.79;99414.00;10541666;28;20082;-69
2022/09/25 11:47:39;;;;;;;2.92;2.33;;;;;;;22.00;36.42;99423.59;10526907;28;20051;-69
2022/09/25 11:52:50;;;;;;;4.30;3.30;;;;;;;22.12;39.31;99417.19;10522199;28;20074;-69
2022/09/25 11:58:25;;;;;;;4.25;3.90;;;;;;;21.70;42.63;99408.44;10539876;28;20298;-70
2022/09/25 12:03:36;;;;;;;4.10;3.80;;;;;;;21.44;45.28;99406.22;10522202;28;20040;-70
2022/09/25 12:08:40;;;;;;;3.95;3.65;;;;;;;20.68;46.08;99405.53;10540241;28;20036;-70
2022/09/25 12:14:08;;;;;;;4.00;3.60;;;;;;;20.24;44.97;99396.69;10541446;28;20378;-71
2022/09/25 12:19:45;;;;;;;4.72;3.05;;;;;;;19.77;44.67;99387.19;10522115;28;20094;-69
2022/09/25 12:24:50;;;;;;;3.75;3.40;;;;;;;19.80;45.97;99384.28;10402485;28;20402;-69
2022/09/25 12:30:18;;;;;;;4.88;3.60;;;;;;;19.70;46.14;99381.50;10543120;28;20068;-70
2022/09/25 12:35:34;;;;;;;3.75;3.42;;;;;;;19.39;45.67;99391.06;10533534;28;20047;-70
2022/09/25 12:40:45;;;;;;;3.58;3.28;;;;;;;19.27;48.12;99384.03;10549379;28;20036;-70
2022/09/25 12:45:48;;;;;;;3.13;2.90;;;;;;;19.07;47.97;99380.22;10549250;28;20481;-70
2022/09/25 12:51:04;;;;;;;3.78;3.30;;;;;;;18.90;48.30;99382.38;10548798;28;20085;-70
2022/09/25 12:56:29;;;;;;;3.05;2.85;;;;;;;18.83;48.95;99373.16;10548288;28;20417;-70
2022/09/25 13:01:40;;;;;;;3.10;2.90;;;;;;;19.02;47.59;99361.94;10548159;28;20149;-71
2022/09/25 13:07:02;;;;;;;3.28;2.95;;;;;;;18.88;48.42;99367.47;10546471;28;20497;-70
2022/09/25 13:12:07;;;;;;;4.55;3.33;;;;;;;19.15;47.73;99362.69;10527807;28;20091;-69
2022/09/25 13:17:11;;;;;;;2.90;2.60;;;;;;;18.89;48.30;99358.53;10545229;28;20043;-71
2022/09/25 13:22:24;;;;;;;3.28;2.90;;;;;;;19.28;46.18;99354.56;10545493;28;20109;-70
2022/09/25 13:27:40;;;;;;;3.03;2.67;;;;;;;19.10;47.87;99353.34;10545929;28;20036;-70
2022/09/25 13:32:47;;;;;;;2.90;2.70;;;;;;;19.20;48.08;99340.16;10527819;28;20454;-71
2022/09/25 13:37:51;;;;;;;2.80;2.60;;;;;;;19.15;47.86;99330.72;10553522;22;20044;-69
2022/09/25 13:42:53;;;;;;;3.20;2.75;;;;;;;19.16;48.30;99328.88;10501895;28;20066;-69
2022/09/25 13:47:56;;;;;;;4.40;2.47;;;;;;;19.09;46.28;99333.88;10502189;28;20032;-69
2022/09/25 13:58:22;;;;;;;3.28;2.97;;;;;;;19.35;45.30;99322.97;10501629;28;20041;-71
2022/09/25 14:03:43;;;;;;;2.95;2.65;;;;;;;19.29;46.57;99315.44;10502402;28;20060;-69
2022/09/25 14:08:46;;;;;;;3.00;2.65;;;;;;;19.09;46.53;99325.03;10501952;28;20040;-70
2022/09/25 14:13:51;;;;;;;2.10;2.00;;;;;;;19.01;47.29;99327.44;10483410;28;20459;-69
2022/09/25 14:18:56;;;;;;;2.45;2.25;;;;;;;18.94;47.54;99318.22;10500930;28;20040;-69
2022/09/25 14:24:17;;;;;;;3.35;2.30;;;;;;;18.87;48.20;99317.84;10501191;28;20094;-69
2022/09/25 14:29:29;;;;;;;2.65;2.45;;;;;;;19.06;48.14;99307.47;10500976;28;20041;-69
2022/09/25 14:34:31;;;;;;;3.35;2.60;;;;;;;18.85;47.87;99309.13;10484152;28;20087;-69
2022/09/25 14:39:52;;;;;;;2.22;2.03;;;;;;;18.83;48.17;99311.06;10502201;28;20556;-70
2022/09/25 14:45:29;;;;;;;2.53;2.30;;;;;;;18.60;49.30;99295.03;10483938;28;20052;-70
2022/09/25 14:50:45;;;;;;;2.90;2.55;;;;;;;18.60;48.48;99284.38;10500638;28;20036;-70
2022/09/25 14:55:51;;;;;;;2.90;2.53;;;;;;;18.57;48.58;99289.94;10499453;28;20036;-70
2022/09/25 15:00:57;;;;;;;2.75;2.35;;;;;;;18.61;48.50;99279.91;10500658;28;20048;-70
2022/09/25 15:06:03;;;;;;;2.03;1.93;;;;;;;18.41;49.66;99282.25;10499908;28;20043;-70
2022/09/25 15:11:13;;;;;;;3.53;1.93;;;;;;;18.06;50.73;99284.06;10500300;28;20044;-70
2022/09/25 15:21:43;;;;;;;2.97;2.28;;;;;;;18.03;50.14;99292.28;10500126;28;20544;-69
2022/09/25 15:27:01;;;;;;;2.85;2.22;;;;;;;18.12;49.61;99295.09;10482067;28;20041;-71
2022/09/25 15:32:04;;;;;;;2.80;2.50;;;;;;;17.78;51.13;99288.75;10482047;28;20079;-70
2022/09/25 15:37:16;;;;;;;2.90;2.58;;;;;;;17.74;51.20;99281.97;10499430;28;20083;-72
2022/09/25 15:42:18;;;;;;;4.35;2.25;;;;;;;17.70;51.62;99275.16;10499157;28;20040;-72
2022/09/25 15:47:35;;;;;;;2.42;2.20;;;;;;;17.68;52.35;99276.25;10481156;28;20040;-71
2022/09/25 15:52:37;;;;;;;4.78;2.05;;;;;;;17.57;52.82;99282.31;10499137;28;20041;-70
2022/09/25 15:57:39;;;;;;;3.38;2.67;;;;;;;17.48;53.00;99289.16;10498924;28;20045;-70
2022/09/25 16:08:30;;;;;;;2.78;2.20;;;;;;;17.30;53.61;99279.84;10489114;28;20044;-69
2022/09/25 16:13:33;;;;;;;2.00;1.90;;;;;;;17.02;54.91;99281.81;10507451;28;20045;-69
2022/09/25 16:18:40;;;;;;;2.33;2.13;;;;;;;16.88;55.55;99276.63;10490161;28;20555;-70
2022/09/25 16:23:42;;;;;;;2.85;2.40;;;;;;;16.76;56.95;99288.09;10507392;28;20040;-70
2022/09/25 16:29:06;;;;;;;3.22;2.60;;;;;;;16.63;57.17;99274.78;10506576;28;20102;-69
2022/09/25 16:34:18;;;;;;;2.60;2.40;;;;;;;16.54;60.46;99281.56;10506610;28;20062;-70
2022/09/25 16:39:35;;;;;;;3.33;2.90;;;;;;;16.46;63.32;99281.22;10488046;28;20379;-70
2022/09/25 16:44:41;;;;;;;3.67;3.38;;;;;;;16.44;64.20;99283.16;10505775;28;20086;-70
2022/09/25 16:49:43;;;;;;;4.32;3.92;;;;;;;16.24;64.44;99286.28;10507627;28;20052;-70
2022/09/25 16:54:52;;;;;;;4.60;4.20;;;;;;;15.73;66.46;99297.56;10487986;28;20044;-69
2022/09/25 16:59:54;;;;;;;3.90;3.60;;;;;;;15.49;67.35;99292.00;10487480;28;20395;-70
2022/09/25 17:04:56;;;;;;;4.70;4.28;;;;;;;15.51;69.64;99290.13;10506240;28;20048;-69
2022/09/25 17:09:59;;;;;;;5.40;4.78;;;;;;;15.22;70.18;99289.31;10506719;28;20442;-70
2022/09/25 17:15:01;;;;;;;5.22;4.43;;;;;;;15.20;72.25;99285.06;10487372;28;20040;-70
2022/09/25 17:20:03;;;;;;;4.93;4.63;;;;;;;14.93;73.15;99283.19;10487678;28;20410;-70
2022/09/25 17:25:18;;;;;;;5.63;5.22;;;;;;;14.90;73.40;99286.00;10504599;28;20049;-70
2022/09/25 17:30:23;;;;;;;6.53;6.03;;;;;;;14.77;74.49;99293.00;10504981;28;20123;-70
2022/09/25 17:35:36;;;;;;;7.30;6.70;;;;;;;14.96;74.69;99284.78;10504803;28;20087;-71
2022/09/25 17:40:44;;;;;;;7.03;6.40;;;;;;;15.28;73.69;99281.00;10508172;28;20086;-70
2022/09/25 17:45:54;;;;;;;6.50;6.00;;;;;;;15.23;74.42;99282.22;10538087;28;20064;-69
2022/09/25 17:51:02;;;;;;;4.97;4.68;;;;;;;15.04;75.04;99283.38;10503731;28;20055;-69
2022/09/25 17:56:04;;;;;;;5.95;5.50;;;;;;;14.82;76.17;99281.19;10504116;28;20048;-69
2022/09/25 18:01:13;;;;;;;6.28;5.78;;;;;;;14.81;76.84;99286.59;10504265;28;20044;-70
2022/09/25 18:06:14;;;;;;;6.05;5.65;;;;;;;14.55;77.70;99283.72;10503297;28;20033;-70
2022/09/25 18:11:16;;;;;;;6.25;5.85;;;;;;;14.52;78.53;99283.91;10502579;28;20464;-71
2022/09/25 18:16:20;;;;;;;7.70;7.10;;;;;;;14.16;80.77;99289.53;10483358;28;20090;-72
2022/09/25 18:26:43;;;;;;;7.53;7.03;;;;;;;14.02;81.55;99289.47;10500782;28;20071;-70
2022/09/25 18:31:46;;;;;;;7.43;6.88;;;;;;;13.79;82.97;99291.66;10501187;28;20098;-70
2022/09/25 18:36:48;;;;;;;6.53;6.13;;;;;;;13.60;84.16;99293.63;10501757;28;20037;-70
2022/09/25 18:41:50;;;;;;;7.82;7.22;;;;;;;13.34;86.67;99285.38;10501141;28;20071;-70
2022/09/25 18:46:53;;;;;;;8.02;7.43;;;;;;;13.17;87.24;99287.19;10483325;28;20037;-70
2022/09/25 18:51:55;;;;;;;7.82;7.13;;;;;;;13.07;87.57;99295.59;10483224;28;20052;-70
2022/09/25 18:56:57;;;;;;;7.65;7.15;;;;;;;13.09;87.10;99295.50;10500939;28;20502;-70
2022/09/25 19:01:59;;;;;;;7.90;7.47;;;;;;;12.97;89.32;99286.50;10500663;28;20115;-70
2022/09/25 19:07:01;;;;;;;8.15;7.65;;;;;;;12.90;89.76;99287.75;10500237;28;20049;-69
2022/09/25 19:12:06;;;;;;;14.05;8.30;;;;;;;12.91;89.27;99288.59;10500210;28;20044;-70
2022/09/25 19:17:08;;;;;;;9.48;8.77;;;;;;;12.74;90.83;99292.97;10499737;28;20036;-69
2022/09/25 19:22:17;;;;;;;9.73;9.05;;;;;;;12.69;90.93;99295.00;10500291;28;20045;-70
2022/09/25 19:27:19;;;;;;;10.63;9.85;;;;;;;12.70;90.83;99290.56;10500983;28;20489;-71
2022/09/25 19:32:23;;;;;;;10.57;9.88;;;;;;;12.83;91.38;99287.19;10499266;28;20049;-70
2022/09/25 19:37:32;;;;;;;10.00;9.05;;;;;;;12.92;90.04;99292.91;10500314;28;20090;-69
2022/09/25 19:42:36;;;;;;;11.15;10.23;;;;;;;12.80;91.83;99291.81;10428631;28;20045;-81
2022/09/25 19:47:37;;;;;;;11.30;10.52;;;;;;;12.88;91.98;99294.88;10414597;28;20041;-80
2022/09/25 19:52:39;;;;;;;11.70;10.90;;;;;;;12.52;92.57;99287.09;10450062;28;20048;-80
2022/09/25 19:57:40;;;;;;;11.52;10.82;;;;;;;12.52;94.58;99287.94;10451302;28;20052;-80
2022/09/25 20:02:46;;;;;;;12.20;11.40;;;;;;;12.55;94.09;99286.94;10471758;28;20045;-78
2022/09/25 20:07:48;;;;;;;11.32;10.57;;;;;;;12.35;94.30;99288.84;10453870;28;20044;-79
2022/09/25 20:12:50;;;;;;;12.60;11.73;;;;;;;12.09;94.44;99290.16;10472513;28;20049;-79
2022/09/25 20:17:55;;;;;;;12.02;11.23;;;;;;;12.07;94.99;99286.72;10474752;28;20041;-79
2022/09/25 20:22:57;;;;;;;11.88;11.05;;;;;;;12.19;95.17;99287.06;10469370;28;20049;-80
2022/09/25 20:27:59;;;;;;;12.75;11.93;;;;;;;12.26;94.85;99285.78;10452154;28;20056;-80
2022/09/25 20:33:02;;;;;;;11.55;10.55;;;;;;;12.16;96.35;99282.78;10469197;28;20055;-80
2022/09/25 20:38:06;;;;;;;11.25;10.52;;;;;;;12.14;96.84;99287.28;10470230;28;20045;-80
2022/09/25 20:43:07;;;;;;;10.57;9.77;;;;;;;12.16;97.42;99289.81;10470448;28;20045;-80
2022/09/25 20:48:10;;;;;;;10.68;10.02;;;;;;;12.23;97.42;99283.34;10466196;28;20048;-80
2022/09/25 20:53:11;;;;;;;11.10;9.85;;;;;;;12.27;96.87;99290.16;10497825;28;20060;-81
2022/09/25 20:58:13;;;;;;;10.75;9.95;;;;;;;12.30;96.59;99285.56;10499236;28;20052;-80
2022/09/25 21:03:14;;;;;;;10.68;9.98;;;;;;;12.28;96.00;99278.69;10493527;28;20048;-80
2022/09/25 21:08:17;;;;;;;9.65;9.15;;;;;;;12.41;94.93;99278.91;10499004;28;20091;-80
2022/09/25 21:13:19;;;;;;;9.52;8.82;;;;;;;12.44;95.14;99281.38;10499230;28;20045;-80
2022/09/25 21:18:20;;;;;;;10.45;9.65;;;;;;;12.42;95.53;99273.53;10498410;28;20071;-80
2022/09/25 21:23:22;;;;;;;10.50;9.80;;;;;;;12.42;95.60;99275.34;10499149;28;20052;-80
2022/09/25 21:28:24;;;;;;;10.32;9.45;;;;;;;12.48;95.05;99278.50;10497261;28;20059;-80
2022/09/25 21:33:25;;;;;;;9.07;8.48;;;;;;;12.45;95.11;99272.56;10499098;28;20052;-80
2022/09/25 21:38:27;;;;;;;10.70;9.90;;;;;;;12.72;95.18;99265.84;10484365;28;20045;-79
2022/09/25 21:43:31;;;;;;;10.55;9.95;;;;;;;12.85;94.45;99260.75;10481563;28;20062;-79
2022/09/25 21:48:37;;;;;;;10.52;9.73;;;;;;;12.68;94.17;99261.66;10478940;28;20037;-79
2022/09/25 21:53:39;;;;;;;11.03;10.27;;;;;;;12.45;96.69;99265.50;10462511;28;20041;-79
2022/09/25 21:58:41;;;;;;;10.63;9.82;;;;;;;12.38;96.75;99264.09;10478717;28;20033;-79
2022/09/25 22:03:49;;;;;;;9.25;8.75;;;;;;;12.73;94.56;99254.34;10478261;28;20047;-79
2022/09/25 22:08:55;;;;;;;8.88;8.30;;;;;;;12.96;92.44;99257.53;10477076;28;20040;-79
2022/09/25 22:13:58;;;;;;;8.43;7.93;;;;;;;12.98;91.42;99253.91;10477600;28;20048;-81
2022/09/25 22:19:12;;;;;;;8.68;8.02;;;;;;;13.11;90.92;99244.38;10476747;28;20101;-79
2022/09/25 22:24:14;;;;;;;7.63;7.13;;;;;;;13.09;91.03;99248.88;10477442;28;20387;-79
2022/09/25 22:29:16;;;;;;;8.70;8.10;;;;;;;13.21;90.37;99246.50;10476009;28;20041;-79
2022/09/25 22:34:27;;;;;;;8.35;7.75;;;;;;;13.19;90.42;99243.09;10476454;28;20131;-79
2022/09/25 22:39:29;;;;;;;7.95;7.45;;;;;;;12.96;91.55;99241.72;10475958;28;20048;-79
2022/09/25 22:44:31;;;;;;;10.00;9.20;;;;;;;12.86;92.67;99236.09;10475238;28;20052;-79
2022/09/25 22:49:32;;;;;;;8.23;7.53;;;;;;;12.83;93.26;99237.09;10474680;28;20411;-81
2022/09/25 22:54:34;;;;;;;9.25;8.57;;;;;;;12.83;93.62;99237.09;10474123;28;20049;-79
2022/09/25 22:59:35;;;;;;;9.50;8.63;;;;;;;13.26;91.14;99242.72;10478531;28;20040;-77
2022/09/25 23:04:37;;;;;;;10.32;9.70;;;;;;;13.24;90.85;99231.41;10477431;28;20045;-81
2022/09/25 23:09:38;;;;;;;9.00;8.40;;;;;;;13.12;92.70;99232.03;10476181;28;20045;-78
2022/09/25 23:14:40;;;;;;;10.10;9.40;;;;;;;13.27;91.29;99230.34;10476268;28;20045;-79
2022/09/25 23:19:42;;;;;;;11.20;10.50;;;;;;;13.38;90.64;99225.34;10459393;28;20065;-79
2022/09/25 23:24:43;;;;;;;12.77;11.68;;;;;;;13.23;91.11;99216.47;10477097;28;20045;-80
2022/09/25 23:29:45;;;;;;;12.80;11.80;;;;;;;13.23;91.41;99223.53;10476225;28;20048;-80
2022/09/25 23:34:46;;;;;;;13.00;12.20;;;;;;;13.27;91.33;99225.06;10477004;28;20095;-80
2022/09/25 23:39:48;;;;;;;12.88;11.93;;;;;;;13.09;92.05;99222.47;10489608;28;20077;-79
2022/09/25 23:44:49;;;;;;;14.50;13.43;;;;;;;13.31;90.42;99222.19;10484069;28;20051;-79
2022/09/25 23:49:51;;;;;;;13.80;12.82;;;;;;;13.04;93.04;99213.97;10480088;28;20398;-79
2022/09/25 23:54:58;;;;;;;13.75;12.85;;;;;;;13.14;90.96;99201.97;10473079;28;20053;-79
2022/09/25 23:59:59;;;;;;;;;;;;;;;13.24;90.66;99198.88;10471078;28;20398;-78
